Weather observations for the past three days for
St. Petersburg/Clearwater Airport
Imperial (Metric)
Date Time (edt) Wind (mph) Vis. (mi.) Weather Sky Cond. Temperature (ºF) Relative Humidity Wind Chill (°F) Heat Index (°F) Pressure Precipitation (in)
Air Dwpt 6 hour altimeter (in) sea level (mb) 1 hr 3 hr 6 hr
Max. Min.
05 18:53 NW 10 10.00 Fair CLR 81 68 65% 84 29.96 1014.4
05 17:53 NW 10 10.00 Fair CLR 82.9 68 61% 86 29.96 1014.5
05 16:53 NW 13 10.00 Fair CLR 84.9 68 57% 88 29.95 1014.3
05 15:53 N 8 10.00 Fair CLR 84.9 66.9 55% 88 29.96 1014.5
05 14:53 NE 7 10.00 Fair CLR 86 64.9 49% 88 29.97 1014.8
05 13:53 E 8 10.00 Fair CLR 84.9 66 86 72 53% 87 29.99 1015.6
05 12:53 SE 10 10.00 Partly Cloudy SCT039 82.9 66 57% 85 30.01 1016.3
05 11:53 SE 12 G 20 10.00 Partly Cloudy SCT039 82 64.9 56% 84 30.02 1016.4
05 10:53 E 10 10.00 A Few Clouds FEW039 79 66 65% 81 30.02 1016.4
05 09:53 E 9 G 20 10.00 Fair CLR 77 66 69% 79 30 1015.9
05 08:53 E 9 10.00 Fair CLR 73.9 66 76% 30 1015.7
05 07:53 E 8 10.00 Fair CLR 72 66 72 70 82% 30 1015.8
05 06:53 E 8 10.00 Fair CLR 70 64.9 84% 29.97 1014.8
05 05:53 E 6 10.00 Fair CLR 70 64.9 84% 29.96 1014.4
05 04:53 E 7 10.00 Fair CLR 70 64.9 84% 29.95 1014.2
05 03:53 E 9 10.00 Fair CLR 71.1 64.9 81% 29.95 1014.0
05 02:53 E 9 10.00 Fair CLR 71.1 64.9 81% 29.96 1014.4
05 01:53 E 9 10.00 A Few Clouds FEW042 FEW060 72 64 77 72 76% 29.98 1015.2
05 00:53 E 10 10.00 Overcast FEW028 BKN043 OVC055 73 63 71% 30 1015.8
04 23:53 E 10 10.00 Partly Cloudy FEW041 SCT060 73.9 63 69% 30 1015.9
04 22:53 E 13 G 21 10.00 Mostly Cloudy FEW041 BKN050 75 63 66% 77 30.01 1016.2
04 21:53 E 10 10.00 Mostly Cloudy SCT041 BKN055 75.9 64 67% 78 29.99 1015.6
04 20:53 N 8 10.00 A Few Clouds FEW048 75.9 61 60% 78 29.97 1014.8
04 19:53 NW 12 10.00 Fair CLR 77 61 86 77 58% 79 29.94 1014.0
04 18:53 NW 13 10.00 Fair CLR 81 61 51% 82 29.93 1013.5
04 17:53 N 5 10.00 Fair CLR 84.9 57 39% 84 29.93 1013.6
04 16:53 E 6 10.00 Fair CLR 84.9 57 39% 84 29.94 1013.8
04 15:53 NE 6 10.00 Fair CLR 84 57.9 41% 83 29.96 1014.4
04 14:53 E 5 10.00 Fair CLR 82 57 43% 82 29.98 1015.2
04 13:53 Vrbl 6 10.00 Fair CLR 84 59 84 70 43% 84 30.01 1016.2
04 12:53 NE 7 10.00 Fair CLR 82 59 46% 82 30.02 1016.6
04 11:53 E 8 10.00 Fair CLR 80.1 59 49% 81 30.04 1017.1
04 10:53 E 10 10.00 Fair CLR 78.1 61 56% 80 30.04 1017.3
04 09:53 E 14 G 21 10.00 Fair CLR 73.9 61 64% 30.04 1017.1
04 08:53 E 13 10.00 Fair CLR 72 61 68% 30.03 1016.7
04 07:53 NE 12 10.00 Fair CLR 70 61 72 66.9 73% 30.02 1016.4
04 06:53 NE 9 10.00 Fair CLR 68 61 78% 30.01 1016.0
04 05:53 N 7 10.00 Fair CLR 69.1 62.1 78% 30 1015.9
04 04:53 NE 9 10.00 Fair CLR 69.1 62.1 78% 30 1015.7
04 03:53 NE 9 10.00 Mostly Cloudy BKN060 70 62.1 76% 30 1015.7
04 02:53 NE 7 10.00 Overcast OVC048 71.1 62.1 73% 30.02 1016.5
04 01:53 E 10 G 16 10.00 Mostly Cloudy BKN044 72 62.1 75 71.1 71% 30.01 1016.3
04 00:53 E 8 10.00 A Few Clouds FEW046 72 62.1 71% 30.03 1016.9
03 23:53 E 10 10.00 Overcast OVC040 73 63 71% 30.05 1017.6
03 22:53 E 10 10.00 Overcast OVC033 73.9 63 69% 30.04 1017.1
03 21:53 N 12 10.00 Partly Cloudy SCT040 73.9 61 64% 30.02 1016.5
03 20:53 N 10 10.00 Partly Cloudy SCT050 73.9 61 64% 30 1015.8
03 19:53 N 10 10.00 A Few Clouds FEW055 75 61 82 75 62% 77 29.98 1015.3
03 18:53 NW 12 10.00 A Few Clouds FEW120 78.1 62.1 58% 80 29.98 1015.1
03 17:53 N 5 10.00 Fair CLR 81 59 47% 81 29.98 1015.2
03 16:53 N 3 10.00 Fair CLR 81 60.1 49% 82 29.99 1015.4
03 15:53 Vrbl 7 10.00 Fair CLR 80.1 61 52% 81 30.01 1016.0
03 14:53 N 5 10.00 Fair CLR 79 62.1 56% 80 30.04 1017.1
03 13:53 E 9 10.00 Fair CLR 78.1 62.1 78.1 64.9 58% 80 30.05 1017.7
03 12:53 NE 8 10.00 Partly Cloudy SCT055 75 61 62% 77 30.07 1018.1
03 11:53 NE 10 10.00 Partly Cloudy SCT055 73 60.1 64% 30.08 1018.4
03 10:53 NE 13 G 23 10.00 Overcast OVC055 70 59 68% 30.08 1018.5
03 09:53 NE 9 10.00 Overcast OVC051 68 61 78% 30.07 1018.1
03 08:53 N 13 10.00 Overcast OVC050 66 61 84% 30.05 1017.5
03 07:53 NE 13 G 21 10.00 Mostly Cloudy BKN055 BKN070 64.9 61 70 64.9 87% 30.03 1016.8
03 06:53 NE 10 10.00 Mostly Cloudy BKN055 66 61 84% 30.01 1016.1
03 05:53 NE 12 G 21 10.00 Overcast OVC049 66 61 84% 29.99 1015.6
03 04:53 N 12 G 21 10.00 Overcast OVC045 66 62.1 87% 29.98 1015.3
03 03:53 N 9 G 21 10.00 Overcast BKN013 OVC039 66.9 63 87% 29.97 1014.8
03 02:53 N 12 10.00 Overcast BKN011 BKN016 OVC032 69.1 64.9 87% 29.97 1014.7
03 01:53 N 9 10.00 Overcast OVC025 70 66.9 73.9 70 90% 29.97 1014.9 0.01
03 00:53 N 13 G 20 10.00 Overcast FEW012 OVC020 70 66.9 90% 29.97 1014.9
02 23:53 N 9 10.00 Overcast OVC024 72 68 87% 29.95 1014.2
02 22:53 N 10 10.00 Overcast BKN016 OVC023 73 70 90% 29.92 1013.2 0.01 0.01
02 21:53 W 7 9.00 Light Rain OVC018 72 70 94% 29.92 1013.0
02 20:53 Calm 10.00 Partly Cloudy SCT041 73 72 96% 29.88 1011.9
02 19:53 Calm 10.00 Fair CLR 73 72 81 69.1 96% 29.84 1010.6 0.62
Date Time (edt) Wind (mph) Vis. (mi.) Weather Sky Cond. Air Dwpt Max. Min. Relative Humidity Wind Chill (°F) Heat Index (°F) altimeter (in) sea level (mb) 1 hr 3 hr 6 hr
6 hour
Temperature (ºF) Pressure Precipitation (in)